Main page
METAR-TAF:

METAR-TAF

Airports :

Oil platform

Heimdal, Norway

latitude: 59-34-12N, longitude: 2-13-48E, elevation: 10 m

Current weather observation

The report was made 31 minutes ago, at 20:50 UTC
Wind 18 kt from the Southwest
Temperature 10°C
Humidity 93%
Pressure 1012 hPa
Visibility 10 km or more

METAR: ENHM 132050Z AUTO 23018KT 9999NDV OVC043/// 10/09 Q1012 W10/S4

Time: 22:21 (21:21 UTC)

Forecast

The report was made 10 hours and 21 minutes ago, at 11:00 UTC
Forecast valid from 13 at 12 UTC to 13 at 18 UTC
Wind 18 kt from the Southwest
Visibility 10 km or more
Few clouds at a height of 2000 ft
Scattered clouds at a height of 4000 ft
Probability 30% :
Temporary
from 13 at 12 UTC to 13 at 15 UTC
Broken clouds at a height of 1400 ft
Scattered clouds at a height of 2500 ft, Cumulonimbus.
rain showers

TAF: ENHM 131100Z 1312/1318 23018KT 9999 FEW020 SCT040 PROB30 TEMPO 1312/1315 SHRA BKN014 SCT025CB

Weather observations and forecasts of more than 4000 airports (METAR and TAF reports).

The available stations are represented by yellow and red dots on the map.

Hover mouse over dot to see the name of the station.

Then click to see weather observations and forecasts.

To change the map : click on the green buttons with a black cross to zoom in, on the green button with a dash to zoom out, or on the green arrows for adjacent maps.


METAR-TAF: